createdAt,value
2023-02-05T00:02:32.738Z,25.63
2023-02-05T00:05:29.971Z,25.30
2023-02-05T06:44:28.245Z,27.77
2023-02-05T06:46:54.993Z,32.17
2023-02-05T06:49:21.816Z,31.23
2023-02-05T06:52:18.963Z,30.47
2023-02-05T06:58:17.565Z,28.23
2023-02-05T07:01:08.776Z,31.30
2023-02-05T07:07:35.479Z,32.67
2023-02-05T07:13:50.262Z,32.60
2023-02-05T07:17:07.294Z,31.48
2023-02-05T07:36:48.533Z,27.50
2023-02-05T07:43:35.408Z,27.88
2023-02-05T07:47:04.819Z,30.88
2023-02-05T07:49:52.390Z,31.67
2023-02-05T07:52:45.390Z,31.27
2023-02-05T08:13:20.951Z,30.73
2023-02-05T08:16:21.268Z,31.57
2023-02-05T08:22:12.987Z,29.35
2023-02-05T08:24:55.067Z,27.70
2023-02-05T08:28:24.219Z,34.05
2023-02-05T08:34:16.422Z,28.73
2023-02-05T09:20:23.555Z,39.75
2023-02-05T09:51:15.925Z,31.45
2023-02-05T09:53:32.290Z,31.27
2023-02-05T10:39:41.780Z,25.10
2023-02-05T10:47:08.094Z,27.92
2023-02-05T12:49:58.309Z,28.98
2023-02-05T12:53:04.165Z,26.85
2023-02-05T12:55:41.654Z,28.98
2023-02-05T12:58:11.516Z,28.23
2023-02-05T13:04:09.413Z,23.00
2023-02-05T13:06:53.427Z,24.95
2023-02-05T13:09:56.689Z,22.45
2023-02-05T13:12:56.852Z,23.65
2023-02-05T13:21:16.209Z,23.08
2023-02-05T13:24:18.901Z,24.80
2023-02-05T13:35:01.465Z,20.93
2023-02-05T13:40:54.693Z,23.48
2023-02-05T13:47:12.693Z,26.75
2023-02-05T13:50:39.347Z,21.98
2023-02-05T13:54:14.670Z,25.40
2023-02-05T14:01:02.631Z,27.60
2023-02-05T14:03:38.376Z,22.05
2023-02-05T14:06:34.933Z,26.98
2023-02-05T14:09:10.849Z,23.08
2023-02-05T14:11:55.962Z,20.95
2023-02-05T14:14:41.328Z,21.58
2023-02-05T14:17:32.959Z,23.75
2023-02-05T14:20:23.784Z,22.50
2023-02-05T14:25:41.928Z,21.52
2023-02-05T14:28:08.942Z,25.48
2023-02-05T14:30:50.666Z,31.70
2023-02-05T14:33:31.973Z,24.85
2023-02-05T14:36:22.594Z,37.42
2023-02-05T14:38:54.425Z,27.58
2023-02-05T14:41:27.675Z,26.27
2023-02-05T14:44:04.910Z,24.17
2023-02-05T14:46:43.256Z,24.23
2023-02-05T14:49:28.746Z,23.15
2023-02-05T14:52:00.610Z,24.77
2023-02-05T14:54:58.647Z,22.75
2023-02-05T14:57:50.540Z,28.02
2023-02-05T15:00:53.320Z,26.85
2023-02-05T15:04:00.578Z,29.17
2023-02-05T15:10:28.368Z,24.45
2023-02-05T15:13:17.898Z,24.70
2023-02-05T15:16:20.245Z,30.30
2023-02-05T15:19:03.094Z,26.38
2023-02-05T15:23:01.919Z,30.15
2023-02-05T15:30:05.802Z,25.42
2023-02-05T15:46:33.270Z,29.73
2023-02-05T15:49:01.218Z,29.40
2023-02-05T15:51:47.298Z,28.95
2023-02-05T15:54:25.006Z,26.58
2023-02-05T15:56:57.986Z,31.60
2023-02-05T15:59:43.052Z,27.60
2023-02-05T16:02:32.645Z,26.58
2023-02-05T16:05:15.432Z,31.23
2023-02-05T16:08:02.010Z,28.27
2023-02-05T16:10:34.954Z,29.42
2023-02-05T16:13:14.866Z,29.60
2023-02-05T16:16:02.885Z,26.03
2023-02-05T16:18:47.136Z,28.10
2023-02-05T16:21:16.847Z,30.17
2023-02-05T16:23:47.553Z,27.47
2023-02-05T16:26:29.190Z,28.20
2023-02-05T16:29:01.829Z,28.67
2023-02-05T16:31:30.847Z,25.35
2023-02-05T16:34:00.322Z,24.83
2023-02-05T16:36:38.079Z,26.92
2023-02-05T16:41:39.873Z,24.75
2023-02-05T17:21:50.682Z,21.52
2023-02-05T17:24:26.567Z,20.00
2023-02-05T17:26:53.437Z,21.55
2023-02-05T17:29:48.603Z,20.38
2023-02-05T17:32:24.558Z,23.50
2023-02-05T17:35:06.872Z,21.35
2023-02-05T17:37:39.023Z,19.38
2023-02-05T17:40:42.953Z,23.92
2023-02-05T17:43:52.068Z,24.25
2023-02-05T17:46:53.635Z,23.95
2023-02-05T17:49:31.137Z,24.50
2023-02-05T17:52:07.232Z,27.85
2023-02-05T17:58:00.770Z,24.42
2023-02-05T18:04:41.769Z,26.75
2023-02-05T19:36:36.980Z,28.92
2023-02-05T19:39:06.052Z,29.98
2023-02-05T19:42:07.924Z,28.10
2023-02-05T19:44:34.882Z,27.38
2023-02-05T19:47:01.998Z,32.80
2023-02-05T19:49:36.236Z,30.60
2023-02-05T19:52:16.518Z,29.45
2023-02-05T21:25:47.427Z,35.42
2023-02-05T21:28:19.009Z,34.03
2023-02-05T21:30:51.075Z,37.28
2023-02-05T21:33:18.363Z,35.85
2023-02-05T21:36:02.233Z,32.95
2023-02-05T21:38:33.730Z,34.95
2023-02-05T21:41:28.396Z,33.47
2023-02-05T21:50:47.158Z,36.00
2023-02-05T21:53:16.153Z,34.13
2023-02-05T21:55:43.300Z,37.45
2023-02-05T21:58:11.541Z,31.30
2023-02-05T22:00:39.928Z,37.53
2023-02-05T22:03:06.651Z,34.92
2023-02-05T22:05:34.461Z,37.72
2023-02-05T22:08:02.221Z,35.78
2023-02-05T22:10:28.956Z,37.00
2023-02-05T22:12:55.711Z,30.30
2023-02-05T22:15:22.574Z,40.08
2023-02-05T22:17:52.142Z,42.60
2023-02-05T22:20:19.201Z,37.25
2023-02-05T22:22:45.991Z,38.28
2023-02-05T22:25:14.258Z,38.47
2023-02-05T22:27:43.289Z,35.92
2023-02-05T22:30:13.223Z,37.25
2023-02-05T22:32:40.276Z,37.58
2023-02-05T22:35:07.344Z,38.03
2023-02-05T22:37:37.276Z,42.60
2023-02-05T22:40:04.442Z,41.40
2023-02-05T22:42:34.762Z,36.60
2023-02-05T22:45:10.505Z,39.33
2023-02-05T22:47:37.567Z,34.78
2023-02-05T22:50:05.153Z,39.03
2023-02-05T22:52:32.918Z,36.40
2023-02-05T22:55:00.647Z,37.15
2023-02-05T22:57:28.797Z,39.42
2023-02-05T22:59:57.055Z,41.70
2023-02-05T23:02:25.434Z,41.28
2023-02-05T23:04:53.112Z,37.55
2023-02-05T23:07:21.358Z,37.78
2023-02-05T23:09:48.256Z,37.83
2023-02-05T23:12:15.428Z,36.50
2023-02-05T23:14:42.256Z,40.60
2023-02-05T23:17:12.155Z,38.53
2023-02-05T23:19:39.964Z,36.90
2023-02-05T23:22:10.283Z,38.10
2023-02-05T23:24:38.155Z,42.33
2023-02-05T23:27:06.470Z,44.50
2023-02-05T23:29:33.185Z,45.10
2023-02-05T23:32:00.736Z,41.53
2023-02-05T23:34:27.871Z,38.65
2023-02-05T23:36:54.655Z,46.25
2023-02-05T23:39:21.555Z,39.65
2023-02-05T23:41:50.704Z,39.28
2023-02-05T23:44:20.519Z,43.17
2023-02-05T23:46:50.438Z,43.67
2023-02-05T23:49:23.505Z,37.15
2023-02-05T23:51:51.468Z,39.78
2023-02-05T23:54:19.153Z,37.45
2023-02-05T23:56:46.208Z,35.72
2023-02-05T23:59:15.103Z,41.53
